Time;durP1;ratioP1;P1;durP2;ratioP2;P2;SDS_P1;SDS_P2;PMS_P1;PMS_P2;Temp;Humidity;BMP_temperature;BMP_pressure;BME280_temperature;BME280_humidity;BME280_pressure;Samples;Min_cycle;Max_cycle;Signal;HPM_P1;HPM_P2
2021/09/14 00:01:28;;;;;;;9.32;7.03;;;21.60;81.40;;;;;;5080152;28;20538;-60
2021/09/14 00:03:53;;;;;;;9.82;6.85;;;21.60;81.50;;;;;;5052659;28;20516;-60
2021/09/14 00:06:19;;;;;;;8.40;6.43;;;21.50;81.50;;;;;;5091388;28;20021;-61
2021/09/14 00:08:44;;;;;;;8.75;7.13;;;21.50;81.50;;;;;;5080841;28;20095;-61
2021/09/14 00:11:10;;;;;;;8.65;6.72;;;21.50;81.70;;;;;;5074970;28;20443;-61
2021/09/14 00:13:35;;;;;;;9.20;6.70;;;21.50;81.80;;;;;;5072828;28;20521;-61
2021/09/14 00:16:01;;;;;;;9.43;6.60;;;21.50;81.80;;;;;;5085887;28;20044;-61
2021/09/14 00:18:26;;;;;;;7.65;6.40;;;21.40;81.90;;;;;;5073680;28;20549;-61
2021/09/14 00:20:52;;;;;;;10.43;6.93;;;21.40;81.90;;;;;;5081346;28;20483;-60
2021/09/14 00:23:17;;;;;;;9.18;6.63;;;21.40;82.00;;;;;;5080230;28;20044;-62
2021/09/14 00:25:43;;;;;;;14.05;7.30;;;21.40;82.10;;;;;;5095773;28;20028;-61
2021/09/14 00:28:08;;;;;;;15.73;8.02;;;21.40;82.10;;;;;;5102467;28;20043;-60
2021/09/14 00:30:34;;;;;;;12.27;8.52;;;21.40;82.20;;;;;;5069783;28;20036;-60
2021/09/14 00:32:59;;;;;;;18.92;8.13;;;21.30;82.10;;;;;;5093565;28;20082;-60
2021/09/14 00:35:25;;;;;;;20.98;9.55;;;21.40;82.30;;;;;;5088765;28;20102;-61
2021/09/14 00:37:50;;;;;;;23.23;9.10;;;21.30;82.20;;;;;;5082166;28;20028;-60
2021/09/14 00:40:16;;;;;;;24.05;10.25;;;21.30;82.20;;;;;;5079101;28;20120;-61
2021/09/14 00:42:41;;;;;;;19.33;9.52;;;21.30;82.30;;;;;;5079264;28;20035;-61
2021/09/14 00:45:07;;;;;;;12.70;9.48;;;21.30;82.30;;;;;;5071117;28;20031;-61
2021/09/14 00:47:33;;;;;;;16.30;8.75;;;21.30;82.40;;;;;;5103969;28;20112;-61
2021/09/14 00:49:59;;;;;;;12.82;9.30;;;21.20;82.40;;;;;;5078998;28;20371;-61
2021/09/14 00:52:25;;;;;;;12.65;9.30;;;21.20;82.40;;;;;;5054101;28;20041;-60
2021/09/14 00:54:50;;;;;;;15.43;9.45;;;21.20;82.50;;;;;;5077888;28;20137;-60
2021/09/14 00:57:16;;;;;;;16.17;10.68;;;21.20;82.60;;;;;;5064362;28;20052;-61
2021/09/14 00:59:42;;;;;;;19.50;10.02;;;21.20;82.70;;;;;;5063974;28;20032;-60
2021/09/14 01:02:07;;;;;;;14.38;9.73;;;21.10;82.60;;;;;;5086962;28;20032;-61
2021/09/14 01:04:33;;;;;;;16.63;10.07;;;21.10;82.70;;;;;;5094178;28;20666;-60
2021/09/14 01:07:01;;;;;;;20.02;9.60;;;21.10;82.80;;;;;;5052894;28;20042;-61
2021/09/14 01:09:27;;;;;;;15.77;9.55;;;21.10;82.90;;;;;;5079763;28;20024;-61
2021/09/14 01:11:53;;;;;;;14.63;8.90;;;21.10;82.90;;;;;;5081364;28;20032;-60
2021/09/14 01:14:18;;;;;;;16.15;8.70;;;21.10;83.00;;;;;;5065411;28;20036;-61
2021/09/14 01:16:44;;;;;;;9.98;8.23;;;21.00;83.00;;;;;;5079120;28;20279;-60
2021/09/14 01:19:10;;;;;;;13.77;8.23;;;21.00;83.10;;;;;;5088002;28;20427;-60
2021/09/14 01:21:35;;;;;;;12.88;9.43;;;21.00;83.20;;;;;;5076661;28;20127;-61
2021/09/14 01:24:01;;;;;;;12.68;8.38;;;21.00;83.30;;;;;;5094355;28;20118;-61
2021/09/14 01:26:27;;;;;;;10.02;8.48;;;20.90;83.30;;;;;;5071748;28;20142;-61
2021/09/14 01:28:52;;;;;;;10.27;7.82;;;21.00;83.40;;;;;;5063898;28;20078;-60
2021/09/14 01:31:18;;;;;;;15.60;8.50;;;20.90;83.40;;;;;;5063335;28;20040;-61
2021/09/14 01:33:53;;;;;;;10.93;8.25;;;20.90;83.50;;;;;;5076662;28;20554;-61
2021/09/14 01:36:19;;;;;;;13.40;7.85;;;20.90;83.50;;;;;;5060282;28;20032;-61
2021/09/14 01:38:45;;;;;;;16.50;8.02;;;20.90;83.60;;;;;;5039902;28;20036;-60
2021/09/14 01:41:10;;;;;;;13.15;7.82;;;20.90;83.60;;;;;;5075011;28;20032;-61
2021/09/14 01:43:37;;;;;;;15.52;8.60;;;20.90;83.70;;;;;;5074258;28;20047;-62
2021/09/14 01:46:03;;;;;;;11.45;8.88;;;20.80;83.60;;;;;;5082698;28;20528;-61
2021/09/14 01:48:29;;;;;;;14.25;9.35;;;20.80;83.70;;;;;;5057610;28;20024;-60
2021/09/14 01:50:54;;;;;;;13.85;8.75;;;20.80;83.80;;;;;;5067551;28;20043;-61
2021/09/14 01:53:22;;;;;;;11.52;8.95;;;20.80;83.90;;;;;;5081629;28;20028;-60
2021/09/14 01:55:48;;;;;;;11.13;8.55;;;20.80;83.90;;;;;;5077162;28;20028;-61
2021/09/14 01:58:13;;;;;;;11.88;8.68;;;20.80;83.90;;;;;;5070905;28;20494;-61
2021/09/14 02:00:45;;;;;;;12.43;8.70;;;20.70;83.90;;;;;;5073685;28;20031;-61
2021/09/14 02:03:37;;;;;;;11.73;8.00;;;20.70;84.00;;;;;;5055143;28;20048;-60
2021/09/14 02:38:54;;;;;;;9.40;6.60;;;20.60;84.80;;;;;;5090891;28;20081;-60
2021/09/14 02:44:01;;;;;;;7.32;5.97;;;20.50;84.80;;;;;;5080009;28;20029;-60
2021/09/14 03:00:07;;;;;;;8.90;5.88;;;20.40;85.10;;;;;;5082600;28;20032;-60
2021/09/14 03:02:34;;;;;;;12.63;5.45;;;20.40;85.20;;;;;;5080969;28;20115;-60
2021/09/14 03:05:00;;;;;;;7.18;5.65;;;20.40;85.30;;;;;;5068264;28;20016;-60
2021/09/14 03:07:25;;;;;;;9.02;5.97;;;20.40;85.30;;;;;;5081891;28;20059;-60
2021/09/14 03:09:51;;;;;;;10.95;6.43;;;20.40;85.50;;;;;;5078155;28;20110;-60
2021/09/14 03:12:16;;;;;;;9.25;5.53;;;20.30;85.50;;;;;;5093019;28;20086;-60
2021/09/14 03:14:44;;;;;;;8.05;5.95;;;20.30;85.50;;;;;;5099828;28;20024;-60
2021/09/14 03:17:09;;;;;;;6.72;5.70;;;20.30;85.60;;;;;;5079065;28;20024;-61
2021/09/14 03:19:35;;;;;;;7.60;5.50;;;20.30;85.70;;;;;;5054406;28;20095;-60
2021/09/14 03:22:00;;;;;;;9.23;5.43;;;20.20;85.70;;;;;;5084594;28;20047;-61
2021/09/14 03:24:26;;;;;;;8.13;5.40;;;20.20;85.70;;;;;;5063689;28;20048;-60
2021/09/14 03:26:52;;;;;;;26.75;7.38;;;20.20;85.80;;;;;;5086054;28;20043;-60
2021/09/14 03:29:20;;;;;;;25.25;7.32;;;20.20;85.80;;;;;;5077370;28;20527;-60
2021/09/14 03:31:46;;;;;;;40.15;8.07;;;20.20;85.70;;;;;;5084286;28;20206;-60
2021/09/14 03:34:11;;;;;;;50.97;9.07;;;20.20;85.80;;;;;;5071370;28;20408;-60
2021/09/14 03:36:37;;;;;;;66.93;10.05;;;20.20;85.80;;;;;;5078569;28;20116;-61
2021/09/14 03:39:02;;;;;;;70.40;11.35;;;20.10;85.90;;;;;;5064715;28;20466;-60
2021/09/14 03:41:28;;;;;;;65.72;11.77;;;20.10;85.90;;;;;;5083999;28;20463;-60
2021/09/14 03:43:53;;;;;;;151.70;15.70;;;20.10;86.00;;;;;;5071904;28;20515;-60
2021/09/14 03:46:19;;;;;;;159.25;15.23;;;20.10;86.00;;;;;;5075810;28;20028;-60
2021/09/14 03:48:44;;;;;;;103.50;12.27;;;20.10;86.00;;;;;;5074671;28;20502;-61
2021/09/14 03:51:10;;;;;;;74.45;10.15;;;20.10;86.00;;;;;;5082507;28;20058;-60
2021/09/14 03:53:35;;;;;;;84.55;11.18;;;20.10;86.00;;;;;;5080983;28;20044;-60
2021/09/14 03:56:01;;;;;;;81.70;11.52;;;20.00;85.90;;;;;;5073131;28;20041;-60
2021/09/14 03:58:26;;;;;;;85.45;11.32;;;20.10;86.00;;;;;;5082874;28;20487;-61
2021/09/14 04:00:53;;;;;;;77.05;11.25;;;20.00;85.90;;;;;;5069526;28;20476;-60
2021/09/14 04:03:27;;;;;;;67.47;11.18;;;20.00;86.00;;;;;;5049395;28;20023;-61
2021/09/14 04:06:07;;;;;;;51.08;11.32;;;20.00;86.10;;;;;;5075423;28;20020;-61
2021/09/14 04:08:52;;;;;;;69.95;10.07;;;20.00;86.20;;;;;;5071341;28;20494;-60
2021/09/14 04:11:18;;;;;;;192.80;17.27;;;20.00;86.50;;;;;;5084581;28;20032;-60
2021/09/14 04:13:44;;;;;;;91.82;10.35;;;20.00;86.50;;;;;;5058465;28;20346;-60
2021/09/14 04:16:09;;;;;;;65.93;9.82;;;20.00;86.50;;;;;;5083846;28;20031;-60
2021/09/14 04:18:35;;;;;;;54.47;10.13;;;19.90;86.50;;;;;;5077779;28;20456;-61
2021/09/14 04:21:00;;;;;;;57.08;9.52;;;19.90;86.60;;;;;;5083999;28;20076;-60
2021/09/14 04:23:26;;;;;;;54.42;8.98;;;19.90;86.80;;;;;;5083918;28;20378;-60
2021/09/14 04:25:51;;;;;;;48.30;8.10;;;19.90;87.00;;;;;;5071129;28;20040;-60
2021/09/14 04:28:17;;;;;;;54.83;9.40;;;19.80;87.30;;;;;;5084388;28;20119;-60
2021/09/14 04:30:42;;;;;;;47.35;9.10;;;19.90;87.00;;;;;;5090248;28;20028;-60
2021/09/14 04:33:08;;;;;;;43.65;7.68;;;19.90;87.10;;;;;;5064464;28;20336;-61
2021/09/14 04:35:34;;;;;;;62.80;9.52;;;19.90;87.20;;;;;;5087876;28;20090;-60
2021/09/14 04:38:00;;;;;;;45.40;8.32;;;19.80;87.20;;;;;;5075366;28;20059;-60
2021/09/14 04:40:26;;;;;;;59.95;8.80;;;19.90;87.40;;;;;;5083171;28;20071;-61
2021/09/14 04:42:51;;;;;;;57.45;9.32;;;19.80;87.40;;;;;;5079665;28;20101;-61
2021/09/14 04:45:17;;;;;;;52.45;8.43;;;19.80;87.40;;;;;;5062529;28;20488;-60
2021/09/14 04:47:42;;;;;;;40.88;8.10;;;19.80;87.50;;;;;;5084944;28;20034;-60
2021/09/14 04:50:08;;;;;;;47.50;8.38;;;19.80;87.70;;;;;;5078003;28;20123;-60
2021/09/14 04:52:34;;;;;;;31.85;7.43;;;19.80;87.80;;;;;;5074296;28;20048;-61
2021/09/14 04:54:59;;;;;;;41.33;7.88;;;19.80;87.80;;;;;;5077317;28;20032;-60
2021/09/14 04:57:25;;;;;;;43.30;8.02;;;19.80;87.90;;;;;;5080459;28;20118;-60
2021/09/14 04:59:50;;;;;;;46.60;7.65;;;19.80;87.90;;;;;;5076100;28;20047;-60
2021/09/14 05:02:16;;;;;;;51.42;8.68;;;19.80;87.80;;;;;;5083724;28;20063;-60
2021/09/14 05:04:41;;;;;;;41.17;8.23;;;19.70;87.90;;;;;;5085934;28;20103;-60
2021/09/14 05:07:07;;;;;;;38.55;7.70;;;19.70;87.90;;;;;;5072172;28;20718;-61
2021/09/14 05:09:32;;;;;;;34.05;7.28;;;19.70;87.90;;;;;;5087364;28;20062;-61
2021/09/14 05:11:58;;;;;;;53.47;8.85;;;19.70;87.80;;;;;;5077149;28;20387;-60
2021/09/14 05:14:23;;;;;;;50.80;8.02;;;19.70;87.90;;;;;;5086727;28;20028;-60
2021/09/14 05:16:49;;;;;;;47.05;8.05;;;19.60;87.90;;;;;;5086603;28;20028;-60
2021/09/14 05:19:19;;;;;;;42.88;7.28;;;19.60;87.80;;;;;;5046568;28;20328;-60
2021/09/14 05:21:46;;;;;;;42.97;7.75;;;19.60;88.00;;;;;;5081705;28;20079;-61
2021/09/14 05:24:12;;;;;;;29.73;7.05;;;19.60;88.00;;;;;;5085569;28;20125;-61
2021/09/14 05:26:38;;;;;;;26.45;7.18;;;19.60;88.00;;;;;;5077517;28;20114;-60
2021/09/14 05:29:04;;;;;;;28.35;6.88;;;19.50;88.00;;;;;;5078390;28;20543;-61
2021/09/14 05:31:29;;;;;;;23.27;6.78;;;19.50;88.10;;;;;;5068417;28;20144;-61
2021/09/14 05:33:55;;;;;;;38.85;7.32;;;19.50;88.20;;;;;;5077832;28;20039;-60
2021/09/14 05:36:20;;;;;;;30.25;6.88;;;19.50;88.20;;;;;;5070255;28;20025;-61
2021/09/14 05:38:46;;;;;;;32.10;6.20;;;19.50;88.20;;;;;;5082283;28;20028;-61
2021/09/14 05:41:11;;;;;;;20.10;6.63;;;19.50;88.30;;;;;;5080922;28;20472;-60
2021/09/14 05:43:37;;;;;;;26.42;6.95;;;19.50;88.40;;;;;;5064508;28;20048;-60
2021/09/14 05:46:02;;;;;;;24.35;6.25;;;19.40;88.20;;;;;;5081197;28;20028;-60
2021/09/14 05:48:28;;;;;;;35.97;6.40;;;19.40;88.20;;;;;;5063683;28;21045;-60
2021/09/14 05:50:53;;;;;;;21.92;6.40;;;19.40;88.20;;;;;;5073751;28;20431;-60
2021/09/14 05:53:19;;;;;;;19.40;5.18;;;19.40;88.20;;;;;;5071528;28;20594;-60
2021/09/14 05:55:48;;;;;;;27.88;5.80;;;19.40;88.20;;;;;;5056813;28;20040;-63
2021/09/14 05:58:14;;;;;;;24.23;5.90;;;19.40;88.10;;;;;;5033052;28;20032;-60
2021/09/14 06:00:39;;;;;;;16.73;6.07;;;19.40;88.00;;;;;;5071649;28;20032;-61
2021/09/14 06:03:05;;;;;;;24.25;5.72;;;19.40;87.90;;;;;;5075491;28;20043;-60
2021/09/14 06:05:31;;;;;;;20.63;5.22;;;19.40;88.00;;;;;;5079112;28;20163;-60
2021/09/14 06:07:56;;;;;;;21.30;5.70;;;19.40;87.90;;;;;;5077400;28;20101;-61
2021/09/14 06:10:22;;;;;;;17.20;6.03;;;19.40;88.00;;;;;;5084861;28;20039;-60
2021/09/14 06:12:47;;;;;;;17.60;5.95;;;19.40;87.90;;;;;;5076930;28;20043;-60
2021/09/14 06:15:13;;;;;;;11.02;4.95;;;19.40;88.00;;;;;;5088715;28;20047;-61
2021/09/14 06:17:39;;;;;;;18.02;6.13;;;19.40;88.00;;;;;;5075612;28;20031;-60
2021/09/14 06:20:05;;;;;;;17.45;5.63;;;19.40;88.00;;;;;;5077019;28;20028;-61
2021/09/14 06:22:31;;;;;;;15.70;5.82;;;19.40;88.10;;;;;;5078076;28;20372;-60
2021/09/14 06:24:56;;;;;;;17.63;5.13;;;19.40;88.10;;;;;;5069810;28;20051;-60
2021/09/14 06:27:22;;;;;;;12.27;5.70;;;19.40;88.10;;;;;;5096949;28;20030;-60
2021/09/14 06:29:47;;;;;;;18.75;5.80;;;19.40;88.30;;;;;;5072823;28;20031;-60
2021/09/14 06:32:13;;;;;;;28.17;6.25;;;19.40;88.40;;;;;;5081596;28;20109;-60
2021/09/14 06:34:38;;;;;;;19.95;6.10;;;19.40;88.40;;;;;;5077176;28;20163;-61
2021/09/14 06:37:04;;;;;;;17.60;5.72;;;19.40;88.50;;;;;;5072809;28;20038;-60
2021/09/14 06:39:30;;;;;;;14.90;5.07;;;19.40;88.60;;;;;;5057520;28;20025;-60
2021/09/14 06:41:56;;;;;;;14.55;5.75;;;19.40;88.80;;;;;;5079128;28;20351;-60
2021/09/14 06:44:21;;;;;;;23.15;6.10;;;19.30;88.80;;;;;;5051805;28;20499;-60
2021/09/14 06:46:47;;;;;;;16.70;6.47;;;19.30;89.00;;;;;;5061135;28;20032;-60
2021/09/14 06:49:13;;;;;;;15.13;5.78;;;19.40;89.10;;;;;;5091628;28;20051;-60
2021/09/14 06:51:38;;;;;;;20.60;6.13;;;19.40;89.10;;;;;;5083685;28;20028;-61
2021/09/14 06:54:04;;;;;;;19.55;6.20;;;19.40;89.10;;;;;;5081437;28;20124;-60
2021/09/14 06:56:29;;;;;;;12.73;6.40;;;19.40;89.20;;;;;;5085824;28;20343;-60
2021/09/14 06:58:55;;;;;;;17.20;5.97;;;19.40;89.20;;;;;;5083797;28;20793;-61
2021/09/14 07:01:21;;;;;;;19.48;6.32;;;19.40;89.30;;;;;;5082351;28;20133;-60
2021/09/14 07:03:46;;;;;;;50.42;8.55;;;19.40;89.50;;;;;;5057329;28;20075;-60
2021/09/14 07:06:12;;;;;;;40.88;9.13;;;19.40;90.00;;;;;;5088587;28;20543;-60
2021/09/14 07:08:37;;;;;;;46.85;9.90;;;19.40;90.20;;;;;;5096153;28;20505;-61
2021/09/14 07:11:03;;;;;;;88.13;13.95;;;19.40;90.40;;;;;;5066288;28;20519;-60
2021/09/14 07:13:28;;;;;;;76.38;11.95;;;19.30;90.50;;;;;;5084537;28;20036;-60
2021/09/14 07:15:54;;;;;;;48.05;11.05;;;19.30;90.70;;;;;;5091901;28;20028;-61
2021/09/14 07:18:19;;;;;;;32.63;9.25;;;19.30;90.80;;;;;;5078040;28;20487;-61
2021/09/14 07:20:45;;;;;;;30.48;9.55;;;19.30;90.90;;;;;;5092948;28;20028;-60
2021/09/14 07:23:10;;;;;;;40.33;9.25;;;19.30;91.10;;;;;;5080322;28;20067;-60
2021/09/14 07:25:40;;;;;;;20.95;8.48;;;19.30;91.20;;;;;;5066199;28;20533;-61
2021/09/14 07:28:06;;;;;;;28.98;8.68;;;19.30;91.30;;;;;;5086286;28;20024;-61
2021/09/14 07:30:32;;;;;;;22.65;8.95;;;19.30;91.30;;;;;;5090583;28;20032;-61
2021/09/14 07:32:57;;;;;;;23.85;8.43;;;19.30;91.30;;;;;;5087022;28;20181;-60
2021/09/14 07:35:23;;;;;;;22.25;7.88;;;19.30;91.30;;;;;;5079917;28;20039;-62
2021/09/14 07:37:49;;;;;;;35.33;8.88;;;19.30;91.50;;;;;;5092639;28;20097;-60
2021/09/14 07:40:15;;;;;;;51.28;10.57;;;19.30;91.70;;;;;;5056698;28;20016;-60
2021/09/14 07:42:40;;;;;;;24.48;8.38;;;19.30;91.60;;;;;;5074644;28;20036;-60
2021/09/14 07:45:06;;;;;;;31.58;8.95;;;19.30;91.70;;;;;;5086124;28;20471;-63
2021/09/14 07:47:32;;;;;;;46.80;9.30;;;19.30;91.50;;;;;;5078620;28;20050;-62
2021/09/14 07:49:57;;;;;;;24.27;9.57;;;19.30;91.60;;;;;;5081005;28;20028;-64
2021/09/14 07:52:23;;;;;;;28.33;8.68;;;19.30;91.70;;;;;;5067700;28;20067;-64
2021/09/14 07:54:48;;;;;;;31.75;8.10;;;19.30;91.70;;;;;;5085234;28;20679;-64
2021/09/14 07:57:14;;;;;;;38.22;9.40;;;19.30;91.70;;;;;;5057237;28;20032;-61
2021/09/14 07:59:39;;;;;;;45.20;11.80;;;19.40;91.80;;;;;;5076641;28;20012;-61
2021/09/14 08:02:05;;;;;;;41.75;11.13;;;19.30;91.80;;;;;;5077462;28;20043;-61
2021/09/14 08:04:30;;;;;;;34.05;9.45;;;19.30;91.80;;;;;;5083062;28;20097;-63
2021/09/14 08:06:56;;;;;;;33.65;10.15;;;19.30;91.90;;;;;;5073407;28;20536;-62
2021/09/14 08:09:24;;;;;;;28.77;10.00;;;19.40;91.90;;;;;;5083046;28;20024;-62
2021/09/14 08:11:49;;;;;;;29.63;10.57;;;19.40;91.70;;;;;;5075282;28;20040;-62
2021/09/14 08:14:15;;;;;;;36.67;9.45;;;19.40;91.80;;;;;;5064363;28;20055;-63
2021/09/14 08:16:40;;;;;;;26.60;8.70;;;19.40;91.80;;;;;;5088741;28;20712;-62
2021/09/14 08:19:06;;;;;;;35.42;9.20;;;19.40;91.80;;;;;;5087988;28;20119;-62
2021/09/14 08:21:32;;;;;;;37.45;10.43;;;19.50;91.70;;;;;;5074562;28;20451;-63
2021/09/14 08:23:57;;;;;;;36.05;9.20;;;19.50;91.60;;;;;;5080664;28;20590;-63
2021/09/14 08:26:23;;;;;;;31.77;9.13;;;19.50;91.50;;;;;;5080245;28;20084;-62
2021/09/14 08:28:48;;;;;;;33.55;9.27;;;19.60;91.90;;;;;;5052946;28;20024;-63
2021/09/14 08:31:14;;;;;;;32.13;9.32;;;19.60;91.50;;;;;;5064236;28;20038;-63
2021/09/14 08:33:39;;;;;;;38.63;9.13;;;19.60;91.50;;;;;;5082858;28;20187;-62
2021/09/14 08:36:06;;;;;;;35.58;9.00;;;19.70;91.50;;;;;;5079418;28;20384;-63
2021/09/14 08:38:32;;;;;;;29.27;8.30;;;19.70;91.90;;;;;;5072608;28;20043;-62
2021/09/14 08:40:57;;;;;;;30.40;8.55;;;19.70;91.50;;;;;;5067394;28;20078;-63
2021/09/14 08:43:23;;;;;;;27.38;8.65;;;19.80;91.40;;;;;;5084873;28;20032;-62
2021/09/14 08:45:49;;;;;;;30.02;9.30;;;19.80;91.30;;;;;;5086684;28;20486;-62
2021/09/14 08:48:16;;;;;;;40.40;9.60;;;19.80;91.30;;;;;;5062332;28;20152;-62
2021/09/14 08:50:42;;;;;;;35.33;9.30;;;19.90;91.30;;;;;;5068190;28;20115;-62
2021/09/14 08:53:07;;;;;;;43.75;9.85;;;19.90;91.40;;;;;;5057424;28;20514;-61
2021/09/14 08:55:35;;;;;;;28.77;8.23;;;19.90;91.20;;;;;;5068199;28;20109;-60
2021/09/14 08:58:01;;;;;;;35.55;9.23;;;20.00;91.20;;;;;;5083820;28;20036;-60
2021/09/14 09:00:30;;;;;;;49.33;10.75;;;20.00;91.20;;;;;;5079651;28;20036;-61
2021/09/14 09:02:56;;;;;;;52.10;10.55;;;20.00;91.10;;;;;;5079455;28;20031;-61
2021/09/14 09:05:32;;;;;;;29.90;9.07;;;20.10;91.00;;;;;;5059386;28;20032;-61
2021/09/14 09:07:57;;;;;;;33.88;8.77;;;20.10;91.00;;;;;;5054159;28;20046;-61
2021/09/14 09:10:23;;;;;;;37.25;9.68;;;20.10;91.00;;;;;;5083772;28;20566;-62
2021/09/14 09:12:49;;;;;;;32.00;9.52;;;20.10;90.90;;;;;;5084673;28;20184;-61
2021/09/14 09:15:27;;;;;;;49.90;10.40;;;20.20;90.90;;;;;;5085015;28;20020;-61
2021/09/14 09:18:07;;;;;;;45.47;10.48;;;20.20;91.00;;;;;;5087038;28;20055;-61
2021/09/14 09:20:37;;;;;;;50.30;10.50;;;20.20;90.80;;;;;;5089390;28;20030;-60
2021/09/14 09:23:08;;;;;;;44.28;11.15;;;20.30;90.60;;;;;;5062155;28;20044;-63
2021/09/14 09:25:34;;;;;;;35.80;10.07;;;20.30;90.50;;;;;;5080273;28;20109;-63
2021/09/14 09:28:04;;;;;;;45.53;11.63;;;20.40;90.50;;;;;;5073402;28;20499;-63
2021/09/14 09:30:38;;;;;;;41.78;11.80;;;20.40;90.40;;;;;;5044708;28;20393;-63
2021/09/14 09:33:07;;;;;;;34.63;10.98;;;20.40;90.20;;;;;;5073229;28;20547;-63
2021/09/14 09:35:39;;;;;;;36.53;11.23;;;20.50;90.20;;;;;;5043648;28;20059;-63
2021/09/14 09:38:06;;;;;;;36.70;11.55;;;20.50;90.10;;;;;;5064571;28;20039;-63
2021/09/14 09:40:37;;;;;;;51.17;11.85;;;20.60;90.10;;;;;;5047700;28;20020;-63
2021/09/14 09:43:08;;;;;;;33.72;10.82;;;20.60;90.10;;;;;;5058769;28;20119;-66
2021/09/14 09:45:44;;;;;;;33.13;10.50;;;20.60;89.70;;;;;;5045814;28;20163;-61
2021/09/14 09:48:10;;;;;;;38.75;10.80;;;20.70;89.50;;;;;;5068634;28;20023;-61
2021/09/14 09:50:40;;;;;;;40.65;10.30;;;20.70;89.20;;;;;;5062371;28;20055;-60
2021/09/14 09:53:08;;;;;;;52.00;10.80;;;20.80;89.30;;;;;;5068071;28;20119;-61
2021/09/14 09:55:34;;;;;;;45.45;10.25;;;20.80;89.10;;;;;;5063908;28;20464;-61
2021/09/14 09:58:05;;;;;;;45.65;11.88;;;20.90;89.10;;;;;;5077029;28;20040;-61
2021/09/14 10:00:35;;;;;;;41.05;10.13;;;20.90;89.30;;;;;;5058346;28;20028;-63
2021/09/14 10:03:02;;;;;;;40.53;9.70;;;21.00;89.00;;;;;;5056827;28;20028;-64
2021/09/14 10:05:29;;;;;;;50.95;10.63;;;21.00;88.50;;;;;;5080491;28;20055;-63
2021/09/14 10:07:55;;;;;;;83.97;14.57;;;21.10;88.50;;;;;;5060334;28;20020;-64
2021/09/14 10:10:20;;;;;;;55.33;11.35;;;21.20;88.10;;;;;;5057744;28;20058;-64
2021/09/14 10:12:47;;;;;;;62.83;11.90;;;21.30;87.90;;;;;;5079939;28;20040;-63
2021/09/14 10:15:14;;;;;;;70.75;12.80;;;21.30;87.70;;;;;;5062906;28;20115;-61
2021/09/14 10:18:06;;;;;;;58.65;11.57;;;21.30;87.60;;;;;;5066702;28;20028;-61
2021/09/14 10:20:39;;;;;;;81.97;11.52;;;21.40;87.30;;;;;;5072889;28;20087;-60
2021/09/14 10:23:29;;;;;;;66.88;11.43;;;21.40;87.10;;;;;;5063403;28;20421;-61
2021/09/14 10:26:05;;;;;;;63.47;11.75;;;21.40;87.20;;;;;;5075127;28;20155;-61
2021/09/14 10:28:40;;;;;;;71.80;10.65;;;21.50;86.90;;;;;;5044618;28;20093;-61
2021/09/14 10:31:21;;;;;;;71.80;12.02;;;21.60;86.80;;;;;;5061773;28;20066;-63
2021/09/14 10:33:47;;;;;;;73.20;11.60;;;21.70;86.50;;;;;;5076597;28;20038;-63
2021/09/14 10:36:13;;;;;;;44.90;10.35;;;21.70;86.40;;;;;;5078543;28;20048;-63
2021/09/14 10:38:47;;;;;;;77.68;11.07;;;21.80;86.00;;;;;;5073688;28;20031;-63
2021/09/14 10:41:14;;;;;;;61.97;10.23;;;21.90;86.10;;;;;;5075372;28;20045;-64
2021/09/14 10:43:41;;;;;;;96.88;14.27;;;21.90;86.20;;;;;;5079072;28;20469;-60
2021/09/14 10:46:07;;;;;;;72.22;11.80;;;21.90;86.10;;;;;;5045014;28;20031;-61
2021/09/14 10:48:34;;;;;;;68.03;12.38;;;22.00;86.20;;;;;;5080955;28;20024;-64
2021/09/14 10:51:10;;;;;;;54.67;10.40;;;22.10;86.00;;;;;;5062974;28;20024;-63
2021/09/14 10:53:36;;;;;;;54.05;11.70;;;22.10;85.90;;;;;;5082208;28;20023;-63
2021/09/14 10:56:02;;;;;;;56.10;11.52;;;22.10;85.90;;;;;;5056645;28;20547;-64
2021/09/14 10:58:42;;;;;;;64.72;11.55;;;22.20;86.00;;;;;;5064530;28;20130;-62
2021/09/14 11:01:07;;;;;;;58.45;11.07;;;22.20;85.80;;;;;;5040695;28;20032;-63
2021/09/14 11:03:33;;;;;;;84.85;12.27;;;22.30;85.70;;;;;;5044669;28;20036;-64
2021/09/14 11:05:59;;;;;;;77.85;12.80;;;22.30;85.60;;;;;;5056884;28;20183;-64
2021/09/14 11:08:25;;;;;;;98.07;13.18;;;22.40;85.00;;;;;;5081369;28;20807;-61
2021/09/14 11:10:51;;;;;;;76.57;12.25;;;22.50;84.80;;;;;;5064609;28;20020;-61
2021/09/14 11:13:24;;;;;;;69.10;11.77;;;22.50;84.60;;;;;;5061320;28;20085;-60
2021/09/14 11:15:57;;;;;;;81.68;12.90;;;22.60;84.50;;;;;;5053719;28;20459;-61
2021/09/14 11:18:29;;;;;;;68.05;11.88;;;22.60;84.30;;;;;;5069982;28;20028;-60
2021/09/14 11:21:02;;;;;;;66.95;12.25;;;22.60;84.30;;;;;;5060611;28;20060;-61
2021/09/14 11:23:27;;;;;;;63.35;10.80;;;22.70;84.20;;;;;;5084556;28;20046;-60
2021/09/14 11:25:56;;;;;;;69.30;11.32;;;22.70;84.10;;;;;;5091333;28;20035;-61
2021/09/14 11:28:22;;;;;;;49.85;10.68;;;22.80;84.00;;;;;;5075804;28;20094;-61
2021/09/14 11:30:53;;;;;;;58.03;11.23;;;22.90;83.80;;;;;;5077732;28;20020;-60
2021/09/14 11:33:18;;;;;;;57.65;11.80;;;22.90;83.70;;;;;;5075017;28;20045;-61
2021/09/14 11:35:44;;;;;;;52.67;10.63;;;23.00;83.70;;;;;;5029838;28;20440;-61
2021/09/14 11:38:11;;;;;;;51.03;10.65;;;23.00;83.40;;;;;;5069700;28;20037;-61
2021/09/14 11:40:48;;;;;;;55.10;10.25;;;23.10;83.40;;;;;;5086044;28;20501;-61
2021/09/14 11:43:18;;;;;;;40.15;9.27;;;23.20;83.00;;;;;;5067028;28;20045;-61
2021/09/14 11:45:44;;;;;;;54.83;10.98;;;23.20;82.70;;;;;;5060519;28;20047;-61
2021/09/14 11:48:18;;;;;;;49.53;10.70;;;23.30;82.70;;;;;;5079019;28;20058;-61
2021/09/14 11:50:44;;;;;;;43.38;9.88;;;23.30;82.60;;;;;;5082387;28;20042;-61
2021/09/14 11:53:16;;;;;;;54.45;10.05;;;23.30;82.50;;;;;;5057599;28;20020;-61
2021/09/14 11:55:47;;;;;;;54.20;9.75;;;23.40;82.40;;;;;;5074005;28;20074;-61
2021/09/14 11:58:13;;;;;;;33.20;8.55;;;23.40;82.10;;;;;;5073563;28;20032;-61
2021/09/14 12:00:45;;;;;;;48.22;9.43;;;23.40;82.10;;;;;;5029939;28;20079;-62
2021/09/14 12:03:11;;;;;;;38.70;8.75;;;23.50;82.00;;;;;;5082703;28;20442;-61
2021/09/14 12:05:37;;;;;;;43.83;9.50;;;23.50;81.70;;;;;;5066167;28;20555;-61
2021/09/14 12:08:09;;;;;;;37.42;8.52;;;23.60;81.60;;;;;;5058824;28;20447;-61
2021/09/14 12:10:43;;;;;;;40.47;8.98;;;23.60;81.20;;;;;;5076370;28;20043;-61
2021/09/14 12:13:13;;;;;;;48.92;10.35;;;23.70;80.90;;;;;;5059526;28;20154;-62
2021/09/14 12:15:39;;;;;;;41.80;8.45;;;23.80;80.70;;;;;;5070599;28;20068;-61
2021/09/14 12:18:04;;;;;;;56.90;9.63;;;23.80;80.40;;;;;;5062861;28;20630;-61
2021/09/14 12:20:30;;;;;;;42.83;8.85;;;23.90;80.30;;;;;;5072028;28;20040;-61
2021/09/14 12:22:56;;;;;;;42.17;9.23;;;23.90;80.10;;;;;;5082654;28;20097;-60
2021/09/14 12:25:21;;;;;;;39.50;8.75;;;24.00;79.70;;;;;;5060331;28;20086;-61
2021/09/14 12:27:47;;;;;;;59.22;9.73;;;24.00;79.70;;;;;;5080959;28;20314;-61
2021/09/14 12:30:12;;;;;;;50.72;9.73;;;24.10;79.60;;;;;;5075566;28;20107;-60
2021/09/14 12:32:38;;;;;;;41.42;8.05;;;24.10;79.20;;;;;;5082360;28;20028;-61
2021/09/14 12:35:04;;;;;;;46.13;9.77;;;24.10;78.50;;;;;;5080597;28;20083;-61
2021/09/14 12:37:30;;;;;;;45.90;8.40;;;24.20;78.20;;;;;;5059678;28;20055;-61
2021/09/14 12:39:55;;;;;;;61.25;9.65;;;24.30;77.80;;;;;;5076335;28;20035;-61
2021/09/14 12:42:21;;;;;;;54.90;9.45;;;24.30;77.10;;;;;;5082843;28;20029;-61
2021/09/14 12:44:46;;;;;;;64.88;10.35;;;24.40;76.80;;;;;;5080908;28;20087;-61
2021/09/14 12:47:12;;;;;;;85.55;11.68;;;24.40;76.50;;;;;;5071879;28;20325;-61
2021/09/14 12:49:37;;;;;;;69.82;11.73;;;24.50;76.40;;;;;;5070535;28;20643;-61
2021/09/14 12:52:03;;;;;;;77.15;11.52;;;24.50;76.50;;;;;;5059300;28;20132;-61
2021/09/14 12:54:29;;;;;;;95.72;12.10;;;24.50;76.50;;;;;;5084847;28;20032;-61
2021/09/14 12:56:56;;;;;;;85.80;12.20;;;24.60;76.00;;;;;;5064201;28;20020;-61
2021/09/14 12:59:21;;;;;;;90.38;12.70;;;24.60;75.90;;;;;;5078249;28;20026;-61
2021/09/14 13:01:47;;;;;;;89.15;11.38;;;24.70;75.60;;;;;;5080001;28;20043;-61
2021/09/14 13:04:12;;;;;;;79.93;11.95;;;24.70;75.50;;;;;;5082308;28;20020;-61
2021/09/14 13:06:38;;;;;;;81.18;12.05;;;24.80;75.30;;;;;;5086041;27;20040;-61
2021/09/14 13:09:04;;;;;;;87.18;14.77;;;24.80;75.30;;;;;;5061843;28;20038;-62
2021/09/14 13:11:30;;;;;;;84.20;11.48;;;24.80;75.10;;;;;;5077915;28;20036;-61
2021/09/14 13:16:39;;;;;;;68.25;10.27;;;24.90;74.70;;;;;;5081129;28;20506;-61
2021/09/14 13:19:05;;;;;;;79.97;12.40;;;24.90;74.60;;;;;;5046243;28;20970;-61
2021/09/14 13:21:31;;;;;;;108.97;13.90;;;25.00;75.00;;;;;;5082024;28;20107;-61
2021/09/14 13:23:56;;;;;;;94.30;13.40;;;25.10;75.00;;;;;;5062825;28;20050;-61